Kaiser — NHJK — position and weather

sailwx.info

Track history (hours):
 
Tides and Currents Weather Stations Pressure Air Temp Water Temp Dewpoint Dewpoint Depression Visibility Wind Speed Wind Dir Waves Ship Positions

Kaiser

Last reported at 2017-Jul-20 18:07 UTC. Time now 2017-Jul-22 14:50 UTC.
Position N 32°42' W 117°11'.

; draft 8.5 m.

Type: Military. MMSI: 303849000.

Date/timePositionNaut miles runAvg speedWind from/ knotsBaromVisibWave heightAir tempDewpointWater temp
2017-Jul-20 18:07N 32°42' W 117°11'0 0.1
2017-Jul-20 18:00N 32°42' W 117°11'1 1.9
2017-Jul-20 17:30N 32°43' W 117°12'3 6.1
2017-Jul-20 17:00N 32°41' W 117°14'510.6
2017-Jul-20 16:30N 32°35' W 117°13'510.0
2017-Jul-20 16:00N 32°34' W 117°19'611.2
2017-Jul-20 15:30N 32°35' W 117°25'611.1
2017-Jul-20 15:00N 32°36' W 117°32'  
2017-Jul-14 23:36N 32°40' W 117°07'0 0.5
2017-Jul-14 23:30N 32°40' W 117°07'2 3.1
2017-Jul-14 23:00N 32°41' W 117°09'4 8.5
2017-Jul-14 22:30N 32°43' W 117°13'1 1.5
2017-Jul-14 22:01N 32°42' W 117°14'0 0.0
2017-Jul-14 15:20N 32°42' W 117°14'0 0.4
2017-Jul-14 15:01N 32°42' W 117°14'3 5.4
2017-Jul-14 14:30N 32°39' W 117°14'4 7.1
2017-Jul-14 14:00N 32°36' W 117°13'611.3
2017-Jul-14 13:31N 32°34' W 117°20'611.5
2017-Jul-14 13:00N 32°35' W 117°26'  
2017-Jul-10 18:22N 33°03' W 118°12'  
Track history (hours):
 
Tides and Currents Weather Stations Pressure Air Temp Water Temp Dewpoint Dewpoint Depression Visibility Wind Speed Wind Dir Waves Ship Positions

Kaiser

Last reported at 2017-Jul-20 18:07 UTC. Time now 2017-Jul-22 14:50 UTC.
Position N 32°42' W 117°11'.

; draft 8.5 m.

Type: Military. MMSI: 303849000.

Date/timePositionNaut miles runAvg speedWind from/ knotsBaromVisibWave heightAir tempDewpointWater temp
2017-Jul-20 18:07N 32°42' W 117°11'0 0.1
2017-Jul-20 18:00N 32°42' W 117°11'1 1.9
2017-Jul-20 17:30N 32°43' W 117°12'3 6.1
2017-Jul-20 17:00N 32°41' W 117°14'510.6
2017-Jul-20 16:30N 32°35' W 117°13'510.0
2017-Jul-20 16:00N 32°34' W 117°19'611.2
2017-Jul-20 15:30N 32°35' W 117°25'611.1
2017-Jul-20 15:00N 32°36' W 117°32'  
2017-Jul-14 23:36N 32°40' W 117°07'0 0.5
2017-Jul-14 23:30N 32°40' W 117°07'2 3.1
2017-Jul-14 23:00N 32°41' W 117°09'4 8.5
2017-Jul-14 22:30N 32°43' W 117°13'1 1.5
2017-Jul-14 22:01N 32°42' W 117°14'0 0.0
2017-Jul-14 15:20N 32°42' W 117°14'0 0.4
2017-Jul-14 15:01N 32°42' W 117°14'3 5.4
2017-Jul-14 14:30N 32°39' W 117°14'4 7.1
2017-Jul-14 14:00N 32°36' W 117°13'611.3
2017-Jul-14 13:31N 32°34' W 117°20'611.5
2017-Jul-14 13:00N 32°35' W 117°26'  
2017-Jul-10 18:22N 33°03' W 118°12'  

Dump ship's entire track history